Time;durP1;ratioP1;P1;durP2;ratioP2;P2;SDS_P1;SDS_P2;PMS_P1;PMS_P2;Temp;Humidity;BMP_temperature;BMP_pressure;BME280_temperature;BME280_humidity;BME280_pressure;Samples;Min_cycle;Max_cycle;Signal;HPM_P1;HPM_P2
2022/08/13 00:01:56;;;;;;;3.93;3.20;;;18.10;99.90;;;;;;5022839;28;20308;-87
2022/08/13 00:04:26;;;;;;;5.27;3.63;;;18.10;99.90;;;;;;5019257;28;20225;-87
2022/08/13 00:09:24;;;;;;;5.80;3.93;;;18.10;99.90;;;;;;5053182;28;20169;-87
2022/08/13 00:14:36;;;;;;;9.13;3.33;;;18.00;99.90;;;;;;5043865;28;20210;-87
2022/08/13 00:17:13;;;;;;;4.10;3.53;;;18.00;99.90;;;;;;5038422;28;20244;-87
2022/08/13 00:19:41;;;;;;;5.03;3.83;;;17.90;99.90;;;;;;5055266;28;20224;-87
2022/08/13 00:22:09;;;;;;;5.80;3.67;;;17.90;99.90;;;;;;5054816;28;20201;-87
2022/08/13 00:24:35;;;;;;;7.27;3.70;;;18.00;99.90;;;;;;5022562;28;20189;-87
2022/08/13 00:27:02;;;;;;;4.53;3.60;;;17.90;99.90;;;;;;5038312;28;20631;-87
2022/08/13 00:29:28;;;;;;;3.50;3.17;;;17.80;99.90;;;;;;5038491;28;20209;-87
2022/08/13 00:31:54;;;;;;;5.47;3.53;;;17.80;99.90;;;;;;5055298;28;20282;-87
2022/08/13 00:34:20;;;;;;;4.10;3.50;;;17.70;99.90;;;;;;5038587;28;20209;-87
2022/08/13 00:36:47;;;;;;;4.10;3.53;;;17.70;99.90;;;;;;5039155;28;20193;-87
2022/08/13 00:39:13;;;;;;;5.97;3.93;;;17.60;99.90;;;;;;5038493;28;20244;-87
2022/08/13 00:41:45;;;;;;;5.17;3.27;;;17.60;99.90;;;;;;5051209;28;20694;-87
2022/08/13 00:44:16;;;;;;;6.27;4.23;;;17.50;99.90;;;;;;5034920;28;20206;-87
2022/08/13 00:46:44;;;;;;;4.13;3.27;;;17.50;99.90;;;;;;5034786;28;20210;-87
2022/08/13 00:49:12;;;;;;;5.20;3.90;;;17.40;99.90;;;;;;5047125;28;20217;-87
2022/08/13 00:51:40;;;;;;;4.70;4.03;;;17.40;99.90;;;;;;5055329;28;20219;-87
2022/08/13 00:54:09;;;;;;;3.53;3.13;;;17.30;99.90;;;;;;5055071;28;20304;-87
2022/08/13 00:56:35;;;;;;;5.27;3.67;;;17.30;99.90;;;;;;5035671;28;20679;-86
2022/08/13 00:59:13;;;;;;;5.33;3.57;;;17.20;99.90;;;;;;5054733;28;20267;-87
2022/08/13 01:01:45;;;;;;;6.47;3.77;;;17.10;99.90;;;;;;5053726;28;20266;-86
2022/08/13 01:04:11;;;;;;;5.10;4.20;;;17.10;99.90;;;;;;5076201;28;20618;-87
2022/08/13 01:06:37;;;;;;;4.50;3.47;;;17.00;99.90;;;;;;5023128;28;20543;-87
2022/08/13 01:09:04;;;;;;;4.93;3.53;;;16.90;99.90;;;;;;5022124;28;20202;-87
2022/08/13 01:11:32;;;;;;;5.53;3.37;;;16.90;99.90;;;;;;5029816;28;20209;-87
2022/08/13 01:14:03;;;;;;;7.53;4.40;;;16.90;99.90;;;;;;5041709;28;20213;-87
2022/08/13 01:16:36;;;;;;;6.87;4.03;;;16.80;99.90;;;;;;5042216;28;20216;-87
2022/08/13 01:19:06;;;;;;;6.13;4.33;;;16.80;99.90;;;;;;5058530;28;20185;-87
2022/08/13 01:21:39;;;;;;;6.33;4.80;;;16.70;99.90;;;;;;5059120;28;20248;-87
2022/08/13 01:24:10;;;;;;;5.53;3.20;;;16.70;99.90;;;;;;5054800;28;20296;-87
2022/08/13 01:26:36;;;;;;;4.90;4.03;;;16.70;99.90;;;;;;5038292;28;20705;-87
2022/08/13 01:29:04;;;;;;;4.77;3.60;;;16.70;99.90;;;;;;5038267;28;20304;-87
2022/08/13 01:31:31;;;;;;;5.67;4.43;;;16.70;99.90;;;;;;5051583;28;20283;-87
2022/08/13 01:33:59;;;;;;;4.97;4.23;;;16.70;99.90;;;;;;5038165;28;20190;-86
2022/08/13 01:36:27;;;;;;;6.70;4.17;;;16.70;99.90;;;;;;5006283;28;20251;-87
2022/08/13 01:38:53;;;;;;;5.20;4.53;;;16.70;99.90;;;;;;5037953;28;20248;-87
2022/08/13 01:41:21;;;;;;;5.57;3.70;;;16.70;99.90;;;;;;5021477;28;20210;-87
2022/08/13 01:43:47;;;;;;;7.97;4.90;;;16.70;99.90;;;;;;5038274;28;20271;-86
2022/08/13 01:46:13;;;;;;;6.40;4.70;;;16.80;99.90;;;;;;5021871;28;20263;-87
2022/08/13 01:51:33;;;;;;;4.30;3.87;;;16.80;99.90;;;;;;5075542;28;20197;-87
2022/08/13 01:54:00;;;;;;;5.23;4.10;;;16.80;99.90;;;;;;5044489;28;20682;-87
2022/08/13 01:56:31;;;;;;;4.47;3.53;;;16.80;99.90;;;;;;5057826;28;20213;-88
2022/08/13 01:59:02;;;;;;;5.40;3.40;;;16.80;99.90;;;;;;5040945;28;20684;-87
2022/08/13 02:01:30;;;;;;;5.77;4.17;;;16.80;99.90;;;;;;5054329;28;20214;-87
2022/08/13 02:03:57;;;;;;;5.67;4.57;;;16.80;99.90;;;;;;5037574;28;20697;-86
2022/08/13 02:06:25;;;;;;;4.80;4.13;;;16.80;99.90;;;;;;5038234;28;20245;-87
2022/08/13 02:08:56;;;;;;;6.33;4.37;;;16.70;99.90;;;;;;5053953;28;20221;-87
2022/08/13 02:11:22;;;;;;;7.20;5.47;;;16.70;99.90;;;;;;5057410;28;20213;-86
2022/08/13 02:13:48;;;;;;;4.70;4.20;;;16.70;99.90;;;;;;5039747;28;20263;-87
2022/08/13 02:16:14;;;;;;;4.87;4.30;;;16.70;99.90;;;;;;5023812;28;20210;-87
2022/08/13 02:18:40;;;;;;;7.27;5.87;;;16.60;99.90;;;;;;5037687;28;20182;-85
2022/08/13 02:21:06;;;;;;;7.57;4.00;;;16.50;99.90;;;;;;5037376;28;20308;-87
2022/08/13 02:23:33;;;;;;;8.60;5.23;;;16.50;99.90;;;;;;5037624;28;20222;-87
2022/08/13 02:26:05;;;;;;;6.60;5.03;;;16.50;99.90;;;;;;5053715;28;20686;-87
2022/08/13 02:28:39;;;;;;;6.60;4.73;;;16.50;99.90;;;;;;5056800;28;20221;-87
2022/08/13 02:31:06;;;;;;;7.27;5.07;;;16.50;99.90;;;;;;5041313;28;20181;-87
2022/08/13 02:33:34;;;;;;;6.03;4.70;;;16.40;99.90;;;;;;5053879;28;20178;-87
2022/08/13 02:36:04;;;;;;;6.67;4.47;;;16.30;99.90;;;;;;5046975;28;20242;-87
2022/08/13 02:38:30;;;;;;;5.67;5.10;;;16.30;99.90;;;;;;5038245;28;20205;-87
2022/08/13 02:43:42;;;;;;;8.53;5.70;;;16.40;99.90;;;;;;5039795;28;20218;-87
2022/08/13 02:46:09;;;;;;;6.63;5.13;;;16.50;99.90;;;;;;5021305;28;20185;-87
2022/08/13 02:48:35;;;;;;;5.87;4.67;;;16.50;99.90;;;;;;5057907;28;20202;-87
2022/08/13 02:51:01;;;;;;;8.00;5.43;;;16.60;99.90;;;;;;5039810;28;20646;-87
2022/08/13 02:53:27;;;;;;;7.27;5.47;;;16.70;99.90;;;;;;5039957;28;20205;-87
2022/08/13 02:55:53;;;;;;;6.60;5.20;;;16.70;99.90;;;;;;5035783;28;20849;-86
2022/08/13 02:58:19;;;;;;;5.93;4.70;;;16.70;99.90;;;;;;5039773;28;20292;-87
2022/08/13 03:00:48;;;;;;;8.47;5.03;;;16.60;99.90;;;;;;5056658;28;20208;-87
2022/08/13 03:03:18;;;;;;;7.70;4.87;;;16.50;99.90;;;;;;5056135;28;20296;-87
2022/08/13 03:05:44;;;;;;;7.50;4.47;;;16.50;99.90;;;;;;5052980;28;20253;-85
2022/08/13 03:08:11;;;;;;;5.00;4.37;;;16.40;99.90;;;;;;5047932;28;20217;-87
2022/08/13 03:10:39;;;;;;;5.77;4.40;;;16.30;99.90;;;;;;5052955;28;20217;-86
2022/08/13 03:13:15;;;;;;;5.93;4.50;;;16.20;99.90;;;;;;5027864;28;20197;-86
2022/08/13 03:15:46;;;;;;;7.33;5.07;;;16.20;99.90;;;;;;5056741;28;20588;-87
2022/08/13 03:18:12;;;;;;;6.03;4.63;;;16.10;99.90;;;;;;5036582;28;20218;-87
2022/08/13 03:20:39;;;;;;;7.47;5.23;;;16.10;99.90;;;;;;5036289;28;20727;-87
2022/08/13 03:23:08;;;;;;;6.73;5.17;;;16.00;99.90;;;;;;5050113;28;21186;-87
2022/08/13 03:25:34;;;;;;;8.10;4.93;;;16.00;99.90;;;;;;5035150;28;20643;-87
2022/08/13 03:28:01;;;;;;;7.53;4.63;;;16.00;99.90;;;;;;5036007;28;20593;-87
2022/08/13 03:30:27;;;;;;;6.33;4.90;;;15.90;99.90;;;;;;5048627;28;20646;-87
2022/08/13 03:32:54;;;;;;;6.27;5.47;;;15.90;99.90;;;;;;5035995;28;20267;-87
2022/08/13 03:35:24;;;;;;;8.27;6.10;;;15.90;99.90;;;;;;5049481;28;20205;-87
2022/08/13 03:37:55;;;;;;;8.80;5.20;;;15.90;99.90;;;;;;5035680;28;20566;-87
2022/08/13 03:41:00;;;;;;;7.23;5.30;;;15.90;99.90;;;;;;5035994;28;20206;-87
2022/08/13 03:43:12;;;;;;;6.57;5.03;;;15.90;99.90;;;;;;5058924;28;20235;-87
2022/08/13 03:45:37;;;;;;;10.77;5.10;;;15.90;99.90;;;;;;5055715;28;20200;-88
2022/08/13 03:48:04;;;;;;;5.77;4.37;;;15.90;99.90;;;;;;5038069;28;20218;-87
2022/08/13 03:50:30;;;;;;;10.83;6.30;;;15.80;99.90;;;;;;5022542;28;20214;-87
2022/08/13 03:53:04;;;;;;;9.97;5.07;;;15.80;99.90;;;;;;5038943;28;20214;-87
2022/08/13 03:55:33;;;;;;;8.17;5.47;;;15.70;99.90;;;;;;5035556;28;20213;-87
2022/08/13 03:58:00;;;;;;;6.60;5.83;;;15.70;99.90;;;;;;5049426;28;20181;-87
2022/08/13 04:00:28;;;;;;;18.20;5.13;;;15.70;99.90;;;;;;5055736;28;20231;-87
2022/08/13 04:02:58;;;;;;;6.33;5.43;;;15.70;99.90;;;;;;5072954;28;20220;-87
2022/08/13 04:05:24;;;;;;;7.30;5.53;;;15.70;99.90;;;;;;5037615;28;20309;-88
2022/08/13 04:07:51;;;;;;;5.90;5.10;;;15.70;99.90;;;;;;5034214;28;20769;-87
2022/08/13 04:10:18;;;;;;;7.57;5.23;;;15.70;99.90;;;;;;5019394;28;20256;-87
2022/08/13 04:12:44;;;;;;;8.10;5.47;;;15.70;99.90;;;;;;5036144;28;20186;-87
2022/08/13 04:15:10;;;;;;;7.23;5.00;;;15.60;99.90;;;;;;5016889;28;20283;-88
2022/08/13 04:17:36;;;;;;;6.63;5.57;;;15.60;99.90;;;;;;5051835;28;20230;-87
2022/08/13 04:20:09;;;;;;;6.17;4.63;;;15.50;99.90;;;;;;5029159;28;20297;-87
2022/08/13 04:22:37;;;;;;;6.10;5.50;;;15.50;99.90;;;;;;5024457;28;20221;-87
2022/08/13 04:25:06;;;;;;;10.47;5.70;;;15.40;99.90;;;;;;5023335;28;20185;-87
2022/08/13 04:27:34;;;;;;;8.60;6.30;;;15.50;99.90;;;;;;5016218;28;20187;-87
2022/08/13 04:30:00;;;;;;;7.43;5.10;;;15.50;99.90;;;;;;5025779;28;20683;-87
2022/08/13 04:32:27;;;;;;;9.10;5.53;;;15.50;99.90;;;;;;5038386;28;20217;-87
2022/08/13 04:34:54;;;;;;;7.70;4.97;;;15.50;99.90;;;;;;5055014;28;20239;-87
2022/08/13 04:37:22;;;;;;;5.67;4.67;;;15.50;99.90;;;;;;5053640;28;20209;-88
2022/08/13 04:39:53;;;;;;;7.73;5.53;;;15.50;99.90;;;;;;5055413;28;20658;-88
2022/08/13 04:42:19;;;;;;;7.73;5.73;;;15.60;99.90;;;;;;5053775;28;20217;-88
2022/08/13 04:44:45;;;;;;;7.27;5.60;;;15.70;99.90;;;;;;5039056;28;20209;-87
2022/08/13 04:47:11;;;;;;;10.13;5.20;;;15.70;99.90;;;;;;5036987;28;20585;-87
2022/08/13 04:49:36;;;;;;;6.50;4.63;;;15.60;99.90;;;;;;5022655;28;20618;-87
2022/08/13 04:52:02;;;;;;;12.60;5.63;;;15.60;99.90;;;;;;5018348;28;20189;-87
2022/08/13 04:54:28;;;;;;;8.20;5.90;;;15.70;99.90;;;;;;5042526;28;20185;-87
2022/08/13 04:56:55;;;;;;;7.60;5.50;;;15.70;99.90;;;;;;5019033;28;20577;-87
2022/08/13 04:59:22;;;;;;;7.97;4.93;;;15.80;99.90;;;;;;5032237;28;20212;-88
2022/08/13 05:01:48;;;;;;;6.80;5.73;;;15.80;99.90;;;;;;5038733;28;20573;-87
2022/08/13 05:04:15;;;;;;;8.60;5.20;;;15.90;99.90;;;;;;5061627;28;20632;-84
2022/08/13 05:06:43;;;;;;;6.03;5.43;;;16.00;99.90;;;;;;5078796;28;20185;-86
2022/08/13 05:09:09;;;;;;;6.70;4.97;;;16.10;99.90;;;;;;5060008;28;20215;-86
2022/08/13 05:11:34;;;;;;;7.53;6.27;;;16.10;99.90;;;;;;5055020;28;20237;-87
2022/08/13 05:14:00;;;;;;;7.37;5.03;;;16.20;99.90;;;;;;5022337;28;20249;-86
2022/08/13 05:16:26;;;;;;;6.67;4.63;;;16.20;99.90;;;;;;5052760;28;20213;-87
2022/08/13 05:18:55;;;;;;;9.90;5.00;;;16.20;99.90;;;;;;5078978;28;20193;-88
2022/08/13 05:21:22;;;;;;;6.60;5.10;;;16.30;99.90;;;;;;5063201;28;20531;-87
2022/08/13 05:23:56;;;;;;;7.27;5.43;;;16.40;99.90;;;;;;5040912;28;20240;-87
2022/08/13 05:26:31;;;;;;;7.93;5.33;;;16.50;99.90;;;;;;5026399;28;20267;-86
2022/08/13 05:29:06;;;;;;;7.60;5.73;;;16.60;99.90;;;;;;5057862;28;20220;-88
2022/08/13 05:31:34;;;;;;;6.40;4.87;;;16.80;99.90;;;;;;5058217;28;20220;-88
2022/08/13 05:34:03;;;;;;;10.30;6.30;;;16.80;99.90;;;;;;5041547;28;20280;-88
2022/08/13 05:36:30;;;;;;;7.30;6.40;;;17.00;99.90;;;;;;5020614;28;20178;-88
2022/08/13 05:38:58;;;;;;;6.63;6.00;;;17.10;99.90;;;;;;5036458;28;20233;-88
2022/08/13 05:41:25;;;;;;;6.17;5.47;;;17.30;99.90;;;;;;5020070;28;20666;-87
2022/08/13 05:43:52;;;;;;;8.20;6.57;;;17.60;99.90;;;;;;5041338;28;20379;-88
2022/08/13 05:46:18;;;;;;;12.00;6.07;;;18.20;99.90;;;;;;5039310;28;20292;-87
2022/08/13 05:48:56;;;;;;;7.83;5.80;;;19.30;99.90;;;;;;5040901;28;20177;-88
2022/08/13 05:51:28;;;;;;;6.97;5.77;;;20.80;99.90;;;;;;5054632;28;20244;-88
2022/08/13 05:53:57;;;;;;;6.43;4.97;;;23.10;99.90;;;;;;5018315;28;20214;-88
2022/08/13 05:56:24;;;;;;;5.80;4.90;;;24.10;99.90;;;;;;5053481;28;20300;-87
2022/08/13 05:58:51;;;;;;;6.47;5.13;;;24.90;99.90;;;;;;5069773;28;20700;-88
2022/08/13 06:04:14;;;;;;;11.33;4.03;;;25.90;99.90;;;;;;5053940;28;20324;-91
2022/08/13 06:06:41;;;;;;;5.57;4.43;;;26.70;99.90;;;;;;5071971;28;20522;-88
2022/08/13 06:09:08;;;;;;;5.07;4.22;;;27.40;99.90;;;;;;5055065;28;20209;-89
2022/08/13 06:11:34;;;;;;;4.40;4.00;;;28.60;99.90;;;;;;5034713;28;20205;-90
2022/08/13 06:14:00;;;;;;;5.43;3.40;;;28.50;99.90;;;;;;5053660;28;20209;-86
2022/08/13 06:16:30;;;;;;;4.50;4.10;;;28.30;99.90;;;;;;5053569;28;20217;-86
2022/08/13 06:18:59;;;;;;;8.98;4.15;;;28.10;99.90;;;;;;5053844;28;20953;-86
2022/08/13 06:21:26;;;;;;;5.90;4.25;;;27.80;99.90;;;;;;5036779;28;20177;-87
2022/08/13 06:23:52;;;;;;;8.68;4.63;;;28.50;99.90;;;;;;5036837;28;20706;-86
2022/08/13 06:26:21;;;;;;;4.55;4.15;;;29.40;99.90;;;;;;5053396;28;20678;-87
2022/08/13 06:28:50;;;;;;;4.63;3.50;;;29.90;99.90;;;;;;5053614;28;20299;-88
2022/08/13 06:31:20;;;;;;;5.07;3.63;;;30.10;99.90;;;;;;5054755;28;20629;-88
2022/08/13 06:33:46;;;;;;;4.65;3.92;;;29.80;99.90;;;;;;5038257;28;20649;-87
2022/08/13 06:36:16;;;;;;;5.53;3.80;;;30.20;99.90;;;;;;5053298;28;20206;-87
2022/08/13 06:38:48;;;;;;;5.18;3.75;;;30.10;99.90;;;;;;5053312;28;20220;-87
2022/08/13 06:41:15;;;;;;;4.20;3.80;;;29.60;99.90;;;;;;5053433;28;20206;-87
2022/08/13 06:43:43;;;;;;;6.70;3.65;;;29.40;99.90;;;;;;5053172;28;20217;-87
2022/08/13 06:46:11;;;;;;;3.90;3.28;;;29.00;99.90;;;;;;5046333;28;20179;-87
2022/08/13 06:48:42;;;;;;;3.85;3.47;;;29.00;99.90;;;;;;5034614;28;20187;-87
2022/08/13 06:51:10;;;;;;;3.97;3.50;;;28.90;99.90;;;;;;5033199;28;20233;-87
2022/08/13 06:53:39;;;;;;;3.60;3.30;;;29.50;99.90;;;;;;5033491;28;20690;-88
2022/08/13 06:56:08;;;;;;;4.68;3.42;;;29.40;99.90;;;;;;5038174;28;20573;-87
2022/08/13 06:58:36;;;;;;;3.85;3.53;;;29.00;99.90;;;;;;5044963;28;20674;-87
2022/08/13 07:01:03;;;;;;;3.83;3.38;;;28.90;99.90;;;;;;5052855;28;20189;-86
2022/08/13 07:03:31;;;;;;;5.38;3.63;;;29.10;99.90;;;;;;5054567;28;20297;-87
2022/08/13 07:05:58;;;;;;;6.95;3.40;;;28.20;99.90;;;;;;5057252;28;20229;-86
2022/08/13 07:08:26;;;;;;;3.28;3.00;;;27.50;99.90;;;;;;5056317;28;20792;-87
2022/08/13 07:13:45;;;;;;;3.35;3.05;;;28.30;99.90;;;;;;5039208;28;20296;-88
2022/08/13 07:16:16;;;;;;;3.88;2.95;;;28.50;99.90;;;;;;5036316;28;20289;-87
2022/08/13 07:18:42;;;;;;;7.10;3.45;;;29.20;99.90;;;;;;5029824;28;20189;-87
2022/08/13 07:21:10;;;;;;;4.55;3.10;;;29.20;99.90;;;;;;5039218;28;20209;-87
2022/08/13 07:23:41;;;;;;;5.18;2.90;;;29.60;99.90;;;;;;5035430;28;20701;-87
2022/08/13 07:26:09;;;;;;;5.05;3.28;;;29.20;99.90;;;;;;5055184;28;20213;-88
2022/08/13 07:28:35;;;;;;;2.90;2.70;;;28.90;99.90;;;;;;5039044;28;20754;-88
2022/08/13 07:31:04;;;;;;;2.80;2.50;;;28.40;99.90;;;;;;5031537;28;20192;-88
2022/08/13 07:33:29;;;;;;;3.33;3.03;;;28.20;99.90;;;;;;5060214;28;20181;-90
2022/08/13 07:35:55;;;;;;;6.57;2.67;;;29.00;99.90;;;;;;5044045;28;20202;-86
2022/08/13 07:38:25;;;;;;;3.53;3.00;;;29.10;99.90;;;;;;5026671;28;20558;-87
2022/08/13 07:40:51;;;;;;;3.65;2.33;;;29.50;99.90;;;;;;5039556;28;20705;-89
2022/08/13 07:43:19;;;;;;;3.55;2.95;;;29.20;99.90;;;;;;5039496;28;20246;-89
2022/08/13 07:46:07;;;;;;;3.95;2.60;;;29.10;99.90;;;;;;5056226;28;20177;-89
2022/08/13 07:48:34;;;;;;;2.20;1.95;;;29.00;99.90;;;;;;5055977;28;20205;-88
2022/08/13 07:51:01;;;;;;;3.10;2.25;;;28.40;99.90;;;;;;5073097;28;20267;-87
2022/08/13 07:53:28;;;;;;;2.83;2.00;;;28.30;99.90;;;;;;5035762;28;20210;-87
2022/08/13 07:55:54;;;;;;;2.05;1.80;;;28.50;99.90;;;;;;5036108;28;20586;-88
2022/08/13 07:58:23;;;;;;;2.15;2.00;;;28.40;99.90;;;;;;5035886;28;20220;-88
2022/08/13 08:00:49;;;;;;;1.83;1.73;;;28.50;99.90;;;;;;5036603;28;20209;-88
2022/08/13 08:03:16;;;;;;;1.85;1.75;;;28.50;99.90;;;;;;5019509;28;20252;-87
2022/08/13 08:05:44;;;;;;;2.47;1.45;;;28.50;99.90;;;;;;5069894;28;20225;-88
2022/08/13 08:08:13;;;;;;;3.10;1.73;;;28.30;99.90;;;;;;5039122;28;20240;-88
2022/08/13 08:10:42;;;;;;;2.30;1.95;;;28.40;99.90;;;;;;5051766;28;20209;-87
2022/08/13 08:13:12;;;;;;;3.38;1.73;;;27.90;99.90;;;;;;5034874;28;20181;-87
2022/08/13 08:15:44;;;;;;;1.92;1.67;;;27.70;99.90;;;;;;5036038;28;20269;-87
2022/08/13 08:18:10;;;;;;;2.00;1.90;;;27.90;99.90;;;;;;5038576;28;20245;-87
2022/08/13 08:20:36;;;;;;;2.20;1.60;;;28.00;99.90;;;;;;5072816;28;20236;-88
2022/08/13 08:23:01;;;;;;;2.00;1.90;;;27.90;99.90;;;;;;5035027;28;20238;-88
2022/08/13 08:25:28;;;;;;;3.45;1.90;;;28.50;99.90;;;;;;5040297;28;20951;-91
2022/08/13 08:27:53;;;;;;;6.70;1.88;;;28.30;99.90;;;;;;5051820;28;20197;-91
2022/08/13 08:30:20;;;;;;;2.33;1.90;;;28.70;99.90;;;;;;5019093;28;20185;-92
2022/08/13 08:32:52;;;;;;;3.53;1.90;;;29.50;99.90;;;;;;5070208;28;20708;-92
2022/08/13 08:35:19;;;;;;;1.80;1.70;;;29.20;99.90;;;;;;5055248;28;20213;-93
2022/08/13 08:43:16;;;;;;;2.72;1.70;;;28.90;99.90;;;;;;5043922;28;20673;-92
2022/08/13 08:45:42;;;;;;;2.78;1.58;;;28.80;99.90;;;;;;5055854;28;20181;-90
2022/08/13 08:48:08;;;;;;;3.15;1.70;;;29.70;99.90;;;;;;5054964;28;21031;-91
2022/08/13 08:50:34;;;;;;;2.38;1.70;;;30.70;99.90;;;;;;5038999;28;20233;-95
2022/08/13 08:53:19;;;;;;;2.10;1.60;;;31.30;99.90;;;;;;5036669;28;20260;-95
2022/08/13 08:55:47;;;;;;;2.35;1.73;;;32.30;99.90;;;;;;5057191;28;20307;-95
2022/08/13 08:58:13;;;;;;;2.92;1.90;;;32.40;99.90;;;;;;5056036;28;20209;-95
2022/08/13 09:00:41;;;;;;;2.25;1.52;;;32.40;99.90;;;;;;5056971;28;20216;-93
2022/08/13 09:03:08;;;;;;;1.83;1.73;;;32.00;97.70;;;;;;5056438;28;20251;-94
2022/08/13 09:05:35;;;;;;;1.75;1.65;;;31.80;98.30;;;;;;5033372;28;20250;-94
2022/08/13 09:08:05;;;;;;;1.52;1.40;;;32.30;99.30;;;;;;5063607;28;20247;-94
2022/08/13 09:10:33;;;;;;;4.15;1.40;;;32.60;99.10;;;;;;5056313;28;20288;-95
2022/08/13 09:13:02;;;;;;;4.70;1.60;;;32.60;95.20;;;;;;5056435;28;20217;-92
2022/08/13 09:15:33;;;;;;;2.03;1.83;;;32.50;98.90;;;;;;5035436;28;20189;-94
2022/08/13 09:18:01;;;;;;;5.05;1.73;;;32.20;98.00;;;;;;5054988;28;20701;-92
2022/08/13 09:20:28;;;;;;;2.65;1.48;;;31.70;97.70;;;;;;5072863;28;20225;-93
2022/08/13 09:23:06;;;;;;;2.17;1.80;;;31.40;96.00;;;;;;5040317;28;20221;-91
2022/08/13 09:25:32;;;;;;;2.13;1.60;;;31.60;97.70;;;;;;5056513;28;20221;-94
2022/08/13 09:27:58;;;;;;;2.20;1.48;;;32.00;96.90;;;;;;5040992;28;20192;-92
2022/08/13 09:30:24;;;;;;;1.65;1.52;;;32.60;94.70;;;;;;5042144;28;20283;-91
2022/08/13 09:32:56;;;;;;;2.88;1.58;;;32.90;94.60;;;;;;5034728;28;20210;-92
2022/08/13 09:35:25;;;;;;;1.60;1.50;;;32.80;96.20;;;;;;5054595;28;20209;-93
2022/08/13 09:37:56;;;;;;;3.33;1.50;;;32.20;96.50;;;;;;5041749;28;20212;-94
2022/08/13 09:40:28;;;;;;;1.98;1.50;;;31.60;99.00;;;;;;5057377;28;20631;-95
2022/08/13 09:43:06;;;;;;;1.80;1.70;;;31.20;99.60;;;;;;5057473;28;20185;-94
2022/08/13 09:45:35;;;;;;;1.70;1.60;;;31.10;98.60;;;;;;5073192;28;20184;-94
2022/08/13 09:48:07;;;;;;;1.60;1.50;;;30.80;97.40;;;;;;5040014;28;20590;-95
2022/08/13 09:50:35;;;;;;;2.38;1.42;;;30.70;98.90;;;;;;5039253;28;20209;-93
2022/08/13 09:53:03;;;;;;;1.90;1.63;;;30.70;99.90;;;;;;5073645;28;20345;-92
2022/08/13 09:55:30;;;;;;;5.28;1.80;;;31.10;97.10;;;;;;5040978;28;20751;-92
2022/08/13 09:57:59;;;;;;;2.17;1.45;;;31.60;99.60;;;;;;5020445;28;20217;-91
2022/08/13 10:00:31;;;;;;;4.65;1.58;;;31.60;96.40;;;;;;5041081;28;20213;-93
2022/08/13 10:03:04;;;;;;;3.60;1.50;;;30.90;97.80;;;;;;5056958;28;20242;-94
2022/08/13 10:05:34;;;;;;;1.48;1.38;;;31.50;97.60;;;;;;5056529;28;20232;-94
2022/08/13 10:08:03;;;;;;;2.15;1.30;;;31.20;97.70;;;;;;5056010;28;20291;-94
2022/08/13 10:10:29;;;;;;;1.67;1.58;;;30.70;98.00;;;;;;5050462;28;20244;-94
2022/08/13 10:12:55;;;;;;;2.67;1.95;;;31.00;97.20;;;;;;5041212;28;20205;-93
2022/08/13 10:15:21;;;;;;;4.97;1.90;;;31.70;97.10;;;;;;5056611;28;20275;-92
2022/08/13 10:17:55;;;;;;;2.20;2.00;;;31.80;98.30;;;;;;5034466;28;20238;-94
2022/08/13 10:20:22;;;;;;;1.60;1.50;;;31.70;97.30;;;;;;5057708;28;20189;-94
2022/08/13 10:22:49;;;;;;;2.72;1.80;;;31.70;98.10;;;;;;5058363;28;20721;-94
2022/08/13 10:25:15;;;;;;;1.75;1.65;;;31.60;95.30;;;;;;5057195;28;20236;-95
2022/08/13 10:27:41;;;;;;;1.90;1.70;;;31.60;95.60;;;;;;5028028;28;20221;-95
2022/08/13 10:30:08;;;;;;;2.50;1.65;;;31.70;96.90;;;;;;5021092;28;20698;-94
2022/08/13 10:32:33;;;;;;;1.60;1.50;;;31.60;92.80;;;;;;5021084;28;20182;-94
2022/08/13 10:35:03;;;;;;;2.38;1.73;;;31.50;93.90;;;;;;5053252;28;20274;-94
2022/08/13 10:37:29;;;;;;;2.13;1.75;;;31.70;94.00;;;;;;5059277;28;20213;-95
2022/08/13 10:39:58;;;;;;;1.58;1.48;;;31.40;94.50;;;;;;5041798;28;20216;-96
2022/08/13 10:42:25;;;;;;;1.67;1.58;;;31.30;95.70;;;;;;5056444;28;20598;-93
2022/08/13 10:44:54;;;;;;;2.08;1.48;;;31.60;92.90;;;;;;5026639;28;20288;-94
2022/08/13 10:47:21;;;;;;;2.55;1.73;;;31.60;93.00;;;;;;5057256;28;20632;-92
2022/08/13 10:49:50;;;;;;;2.25;2.05;;;31.30;92.70;;;;;;5036973;28;20268;-91
2022/08/13 10:52:17;;;;;;;1.95;1.73;;;31.30;93.70;;;;;;5041548;28;20583;-93
2022/08/13 10:54:48;;;;;;;2.33;1.80;;;31.60;95.70;;;;;;5056303;28;20213;-92
2022/08/13 10:57:15;;;;;;;2.72;1.70;;;31.70;94.50;;;;;;5056324;28;20221;-92
2022/08/13 10:59:43;;;;;;;2.00;1.90;;;31.30;94.50;;;;;;5053249;28;20178;-91
2022/08/13 11:02:10;;;;;;;1.70;1.60;;;31.50;94.00;;;;;;5042659;28;20197;-92
2022/08/13 11:04:39;;;;;;;1.75;1.65;;;31.50;95.30;;;;;;5055961;28;20229;-92
2022/08/13 11:07:11;;;;;;;1.42;1.33;;;31.50;91.50;;;;;;5073671;28;21065;-91
2022/08/13 11:09:37;;;;;;;3.40;1.75;;;31.70;92.50;;;;;;5054228;28;20546;-93
2022/08/13 11:12:07;;;;;;;1.70;1.60;;;31.80;91.80;;;;;;5019916;28;20202;-91
2022/08/13 11:14:33;;;;;;;2.88;1.88;;;31.40;91.30;;;;;;5038742;28;20261;-91
2022/08/13 11:16:59;;;;;;;2.60;2.00;;;31.20;91.50;;;;;;5036575;28;20276;-90
2022/08/13 11:19:29;;;;;;;1.83;1.65;;;31.70;93.90;;;;;;5039199;28;20281;-92
2022/08/13 11:21:56;;;;;;;1.90;1.80;;;31.30;92.30;;;;;;5035830;28;20209;-93
2022/08/13 11:24:21;;;;;;;1.60;1.50;;;31.40;94.50;;;;;;5015923;28;20206;-91
2022/08/13 11:26:47;;;;;;;1.50;1.40;;;30.80;94.60;;;;;;5019545;28;20202;-92
2022/08/13 11:29:14;;;;;;;4.82;2.15;;;30.70;92.90;;;;;;5020217;28;20216;-91
2022/08/13 11:31:40;;;;;;;1.60;1.50;;;30.40;97.40;;;;;;5046810;28;20563;-91
2022/08/13 11:34:06;;;;;;;1.67;1.58;;;30.40;95.30;;;;;;5038418;28;20213;-92
2022/08/13 11:36:32;;;;;;;1.77;1.67;;;30.40;93.70;;;;;;5028739;28;20233;-91
2022/08/13 11:38:58;;;;;;;1.52;1.42;;;30.60;91.90;;;;;;5052329;28;20682;-92
2022/08/13 11:41:24;;;;;;;2.92;1.95;;;30.50;93.40;;;;;;5035612;28;20209;-91
2022/08/13 11:43:51;;;;;;;1.83;1.70;;;30.80;94.00;;;;;;5019697;28;20670;-93
2022/08/13 11:46:18;;;;;;;1.70;1.60;;;31.20;94.90;;;;;;5034524;28;20217;-90
2022/08/13 11:48:44;;;;;;;1.73;1.63;;;30.70;94.50;;;;;;5044797;28;20256;-91
2022/08/13 11:51:10;;;;;;;3.53;2.30;;;30.30;93.50;;;;;;5055324;28;20201;-92
2022/08/13 11:53:36;;;;;;;2.22;2.03;;;30.50;91.50;;;;;;5055302;28;20173;-92
2022/08/13 11:56:02;;;;;;;2.65;1.60;;;30.80;92.00;;;;;;5040437;28;20265;-92
2022/08/13 11:58:28;;;;;;;1.60;1.50;;;30.20;94.50;;;;;;5022378;28;20213;-91
2022/08/13 12:00:54;;;;;;;1.70;1.60;;;30.00;96.00;;;;;;5038399;28;20236;-90
2022/08/13 12:03:21;;;;;;;2.47;1.80;;;30.30;95.30;;;;;;5038770;28;20701;-91
2022/08/13 12:05:46;;;;;;;3.35;1.70;;;30.10;92.60;;;;;;5022637;28;20238;-91
2022/08/13 12:08:14;;;;;;;8.27;2.03;;;30.30;92.30;;;;;;5022996;28;20184;-92
2022/08/13 12:10:40;;;;;;;1.70;1.60;;;30.30;93.20;;;;;;5038618;28;20213;-91
2022/08/13 12:13:06;;;;;;;1.70;1.60;;;30.20;94.30;;;;;;5038400;28;20213;-91
2022/08/13 12:15:31;;;;;;;2.03;1.77;;;30.00;92.60;;;;;;5038227;28;20209;-91
2022/08/13 12:17:57;;;;;;;2.22;2.03;;;30.10;93.00;;;;;;5038374;28;20205;-91
2022/08/13 12:20:24;;;;;;;1.70;1.60;;;30.30;92.50;;;;;;5022247;28;20174;-88
2022/08/13 12:22:52;;;;;;;1.90;1.80;;;30.30;93.30;;;;;;5056062;28;20197;-92
2022/08/13 12:25:22;;;;;;;4.63;1.95;;;30.40;91.70;;;;;;5045891;28;20217;-87
2022/08/13 12:27:49;;;;;;;1.92;1.83;;;30.60;92.80;;;;;;5055939;28;20236;-92
2022/08/13 12:30:14;;;;;;;2.90;1.98;;;30.60;93.80;;;;;;5021575;28;20665;-90
2022/08/13 12:32:40;;;;;;;2.10;2.00;;;30.50;95.40;;;;;;5016808;28;20197;-90
2022/08/13 12:35:06;;;;;;;1.70;1.60;;;30.30;94.30;;;;;;5029090;28;20270;-93
2022/08/13 12:37:32;;;;;;;1.98;1.77;;;30.00;92.90;;;;;;5018309;28;20632;-91
2022/08/13 12:39:58;;;;;;;3.10;1.95;;;30.00;93.60;;;;;;5050086;28;20209;-92
2022/08/13 12:42:27;;;;;;;2.00;1.75;;;30.00;93.30;;;;;;5034969;28;20698;-91
2022/08/13 12:44:53;;;;;;;2.22;1.70;;;30.30;95.50;;;;;;5043202;28;20220;-93
2022/08/13 12:47:19;;;;;;;2.28;1.60;;;30.40;93.50;;;;;;5038960;28;20181;-92
2022/08/13 12:49:45;;;;;;;2.00;1.90;;;30.60;91.80;;;;;;5021882;28;20209;-92
2022/08/13 12:52:10;;;;;;;1.67;1.58;;;30.90;93.60;;;;;;5032597;28;20781;-92
2022/08/13 12:54:36;;;;;;;2.00;1.88;;;30.30;91.90;;;;;;5021577;28;20232;-92
2022/08/13 12:57:02;;;;;;;1.70;1.60;;;30.10;93.50;;;;;;5036083;28;20205;-92
2022/08/13 12:59:28;;;;;;;1.90;1.80;;;30.40;91.90;;;;;;5058402;28;20174;-91
2022/08/13 13:01:54;;;;;;;2.55;1.55;;;30.50;92.40;;;;;;5031066;28;20182;-92
2022/08/13 13:04:24;;;;;;;2.33;1.70;;;30.70;90.80;;;;;;5021891;28;20316;-91
2022/08/13 13:06:51;;;;;;;1.73;1.63;;;30.70;91.60;;;;;;5019212;28;20218;-91
2022/08/13 13:09:17;;;;;;;1.92;1.83;;;30.60;91.40;;;;;;5049371;28;20213;-92
2022/08/13 13:11:43;;;;;;;1.70;1.58;;;30.60;92.70;;;;;;5016396;28;20309;-91